Sbi Maduro — V7KY6 — position and weather

sailwx.info

Track history (hours):
 
Tides and Currents Weather Stations Pressure Air Temp Water Temp Dewpoint Dewpoint Depression Visibility Wind Speed Wind Dir Waves Ship Positions

Sbi Maduro

Last reported at 2017-Sep-25 16:33 UTC. Time now 2017-Dec-18 14:41 UTC.
Position N 36°16' E 015°00'.
Warning: this ship's position is months out of date.

Length 292 m; draft 6 m.

Type: Cargo ship. MMSI: 538006241.

Date/timePositionNaut miles runAvg speedWind from/ knotsBaromVisibWave heightAir tempDewpointWater temp
2017-Sep-25 16:33N 36°16' E 015°00'413.6
2017-Sep-25 16:16N 36°17' E 014°56'413.7
2017-Sep-25 15:58N 36°18' E 014°51'713.8
2017-Sep-25 15:30N 36°20' E 014°43'714.0
2017-Sep-25 15:00N 36°22' E 014°35'714.3
2017-Sep-25 14:30N 36°24' E 014°27'714.4
2017-Sep-25 14:00N 36°26' E 014°18'714.5
2017-Sep-25 13:30N 36°29' E 014°09'714.3
2017-Sep-25 13:00N 36°31' E 014°01'814.0
2017-Sep-25 12:27N 36°33' E 013°52'613.7
2017-Sep-25 12:00N 36°35' E 013°44'1013.6
2017-Sep-25 11:16N 36°38' E 013°32'513.5
2017-Sep-25 10:56N 36°39' E 013°27'713.4
2017-Sep-25 10:25N 36°41' E 013°19'  
2017-Sep-20 21:47N 36°11' W 005°24'0 0.0
2017-Sep-20 21:24N 36°11' W 005°24'2 4.0
2017-Sep-20 21:00N 36°09' W 005°24'3 5.1
2017-Sep-20 20:28N 36°06' W 005°23'3 6.5
2017-Sep-20 20:00N 36°04' W 005°20'2 3.6
2017-Sep-20 19:27N 36°04' W 005°18'2 4.8
2017-Sep-20 19:00N 36°04' W 005°20'4 8.7
2017-Sep-20 18:30N 35°60' W 005°21'815.4
2017-Sep-20 18:01N 35°57' W 005°30'10613.6
2017-Sep-20 10:11N 34°57' W 007°18'213.7
2017-Sep-20 10:00N 34°56' W 007°20'19212.5
2017-Sep-19 18:42N 32°24' W 009°41'211.9
2017-Sep-19 18:30N 32°22' W 009°42'1611.8
2017-Sep-19 17:10N 32°07' W 009°49'212.0
2017-Sep-19 17:00N 32°05' W 009°50'712.0
2017-Sep-19 16:27N 31°59' W 009°52'812.2
2017-Sep-19 15:48N 31°52' W 009°56'312.0
2017-Sep-19 15:30N 31°48' W 009°57'712.0
2017-Sep-19 14:57N 31°42' W 010°00'912.0
2017-Sep-19 14:13N 31°35' W 010°05'312.1
2017-Sep-19 13:58N 31°32' W 010°08'3512.2
2017-Sep-19 11:05N 31°04' W 010°33'112.5
2017-Sep-19 11:00N 31°04' W 010°34'8911.9
2017-Sep-19 03:28N 29°52' W 011°36'612.1
2017-Sep-19 03:00N 29°47' W 011°39'6212.3
2017-Sep-18 21:59N 28°59' W 012°22'1412.0
2017-Sep-18 20:48N 28°47' W 012°31'411.9
2017-Sep-18 20:26N 28°43' W 012°34'511.8
2017-Sep-18 20:00N 28°39' W 012°38'612.0
2017-Sep-18 19:30N 28°34' W 012°42'712.3
2017-Sep-18 18:56N 28°28' W 012°46'512.2
2017-Sep-18 18:30N 28°24' W 012°50'611.9
2017-Sep-18 18:00N 28°20' W 012°54'611.9
2017-Sep-18 17:30N 28°15' W 012°59'611.8
2017-Sep-18 17:00N 28°11' W 013°03'611.4
2017-Sep-18 16:30N 28°06' W 013°07'611.8
2017-Sep-18 16:00N 28°02' W 013°11'611.6
2017-Sep-18 15:30N 27°57' W 013°15'611.8
2017-Sep-18 15:00N 27°53' W 013°19'611.9
2017-Sep-18 14:30N 27°48' W 013°24'612.2
2017-Sep-18 14:00N 27°44' W 013°29'612.3
2017-Sep-18 13:30N 27°39' W 013°33'612.4
2017-Sep-18 13:00N 27°34' W 013°37'612.6
2017-Sep-18 12:30N 27°29' W 013°42'612.6
2017-Sep-18 12:00N 27°25' W 013°47'612.4
2017-Sep-18 11:30N 27°20' W 013°51'612.5
2017-Sep-18 11:00N 27°15' W 013°55'612.5
2017-Sep-18 10:30N 27°10' W 013°60'612.5
2017-Sep-18 10:00N 27°05' W 014°04'612.2
2017-Sep-18 09:30N 27°00' W 014°09'612.3
2017-Sep-18 09:00N 26°56' W 014°13'612.0
2017-Sep-18 08:30N 26°51' W 014°17'611.7
2017-Sep-18 07:58N 26°46' W 014°21'511.3
2017-Sep-18 07:30N 26°42' W 014°25'611.1
2017-Sep-18 07:00N 26°37' W 014°29'510.5
2017-Sep-18 06:30N 26°33' W 014°33'510.4
2017-Sep-18 06:00N 26°30' W 014°36'510.2
2017-Sep-18 05:30N 26°26' W 014°40'510.0
2017-Sep-18 05:00N 26°22' W 014°44'5 9.8
2017-Sep-18 04:30N 26°18' W 014°47'5 9.5
2017-Sep-18 03:59N 26°14' W 014°50'6 9.5
2017-Sep-18 03:20N 26°09' W 014°54'3 9.3
2017-Sep-18 02:57N 26°06' W 014°56'4 9.0
2017-Sep-18 02:30N 26°03' W 014°59'5 9.0
2017-Sep-18 02:00N 25°59' W 015°02'510.0
2017-Sep-18 01:30N 25°55' W 015°05'6 9.9
2017-Sep-18 00:52N 25°50' W 015°10'510.1
2017-Sep-18 00:24N 25°46' W 015°13'410.7
2017-Sep-18 00:00N 25°43' W 015°15'611.0
2017-Sep-17 23:27N 25°38' W 015°19'511.2
2017-Sep-17 22:58N 25°33' W 015°23'811.0
2017-Sep-17 22:12N 25°26' W 015°28'311.2
2017-Sep-17 21:56N 25°24' W 015°30'811.3
2017-Sep-17 21:15N 25°18' W 015°35'411.4
2017-Sep-17 20:55N 25°15' W 015°38'19211.2
2017-Sep-17 03:45N 22°24' W 017°13'  
Track history (hours):
 
Tides and Currents Weather Stations Pressure Air Temp Water Temp Dewpoint Dewpoint Depression Visibility Wind Speed Wind Dir Waves Ship Positions

Sbi Maduro

Last reported at 2017-Sep-25 16:33 UTC. Time now 2017-Dec-18 14:41 UTC.
Position N 36°16' E 015°00'.
Warning: this ship's position is months out of date.

Length 292 m; draft 6 m.

Type: Cargo ship. MMSI: 538006241.

Date/timePositionNaut miles runAvg speedWind from/ knotsBaromVisibWave heightAir tempDewpointWater temp
2017-Sep-25 16:33N 36°16' E 015°00'413.6
2017-Sep-25 16:16N 36°17' E 014°56'413.7
2017-Sep-25 15:58N 36°18' E 014°51'713.8
2017-Sep-25 15:30N 36°20' E 014°43'714.0
2017-Sep-25 15:00N 36°22' E 014°35'714.3
2017-Sep-25 14:30N 36°24' E 014°27'714.4
2017-Sep-25 14:00N 36°26' E 014°18'714.5
2017-Sep-25 13:30N 36°29' E 014°09'714.3
2017-Sep-25 13:00N 36°31' E 014°01'814.0
2017-Sep-25 12:27N 36°33' E 013°52'613.7
2017-Sep-25 12:00N 36°35' E 013°44'1013.6
2017-Sep-25 11:16N 36°38' E 013°32'513.5
2017-Sep-25 10:56N 36°39' E 013°27'713.4
2017-Sep-25 10:25N 36°41' E 013°19'  
2017-Sep-20 21:47N 36°11' W 005°24'0 0.0
2017-Sep-20 21:24N 36°11' W 005°24'2 4.0
2017-Sep-20 21:00N 36°09' W 005°24'3 5.1
2017-Sep-20 20:28N 36°06' W 005°23'3 6.5
2017-Sep-20 20:00N 36°04' W 005°20'2 3.6
2017-Sep-20 19:27N 36°04' W 005°18'2 4.8
2017-Sep-20 19:00N 36°04' W 005°20'4 8.7
2017-Sep-20 18:30N 35°60' W 005°21'815.4
2017-Sep-20 18:01N 35°57' W 005°30'10613.6
2017-Sep-20 10:11N 34°57' W 007°18'213.7
2017-Sep-20 10:00N 34°56' W 007°20'19212.5
2017-Sep-19 18:42N 32°24' W 009°41'211.9
2017-Sep-19 18:30N 32°22' W 009°42'1611.8
2017-Sep-19 17:10N 32°07' W 009°49'212.0
2017-Sep-19 17:00N 32°05' W 009°50'712.0
2017-Sep-19 16:27N 31°59' W 009°52'812.2
2017-Sep-19 15:48N 31°52' W 009°56'312.0
2017-Sep-19 15:30N 31°48' W 009°57'712.0
2017-Sep-19 14:57N 31°42' W 010°00'912.0
2017-Sep-19 14:13N 31°35' W 010°05'312.1
2017-Sep-19 13:58N 31°32' W 010°08'3512.2
2017-Sep-19 11:05N 31°04' W 010°33'112.5
2017-Sep-19 11:00N 31°04' W 010°34'8911.9
2017-Sep-19 03:28N 29°52' W 011°36'612.1
2017-Sep-19 03:00N 29°47' W 011°39'6212.3
2017-Sep-18 21:59N 28°59' W 012°22'1412.0
2017-Sep-18 20:48N 28°47' W 012°31'411.9
2017-Sep-18 20:26N 28°43' W 012°34'511.8
2017-Sep-18 20:00N 28°39' W 012°38'612.0
2017-Sep-18 19:30N 28°34' W 012°42'712.3
2017-Sep-18 18:56N 28°28' W 012°46'512.2
2017-Sep-18 18:30N 28°24' W 012°50'611.9
2017-Sep-18 18:00N 28°20' W 012°54'611.9
2017-Sep-18 17:30N 28°15' W 012°59'611.8
2017-Sep-18 17:00N 28°11' W 013°03'611.4
2017-Sep-18 16:30N 28°06' W 013°07'611.8
2017-Sep-18 16:00N 28°02' W 013°11'611.6
2017-Sep-18 15:30N 27°57' W 013°15'611.8
2017-Sep-18 15:00N 27°53' W 013°19'611.9
2017-Sep-18 14:30N 27°48' W 013°24'612.2
2017-Sep-18 14:00N 27°44' W 013°29'612.3
2017-Sep-18 13:30N 27°39' W 013°33'612.4
2017-Sep-18 13:00N 27°34' W 013°37'612.6
2017-Sep-18 12:30N 27°29' W 013°42'612.6
2017-Sep-18 12:00N 27°25' W 013°47'612.4
2017-Sep-18 11:30N 27°20' W 013°51'612.5
2017-Sep-18 11:00N 27°15' W 013°55'612.5
2017-Sep-18 10:30N 27°10' W 013°60'612.5
2017-Sep-18 10:00N 27°05' W 014°04'612.2
2017-Sep-18 09:30N 27°00' W 014°09'612.3
2017-Sep-18 09:00N 26°56' W 014°13'612.0
2017-Sep-18 08:30N 26°51' W 014°17'611.7
2017-Sep-18 07:58N 26°46' W 014°21'511.3
2017-Sep-18 07:30N 26°42' W 014°25'611.1
2017-Sep-18 07:00N 26°37' W 014°29'510.5
2017-Sep-18 06:30N 26°33' W 014°33'510.4
2017-Sep-18 06:00N 26°30' W 014°36'510.2
2017-Sep-18 05:30N 26°26' W 014°40'510.0
2017-Sep-18 05:00N 26°22' W 014°44'5 9.8
2017-Sep-18 04:30N 26°18' W 014°47'5 9.5
2017-Sep-18 03:59N 26°14' W 014°50'6 9.5
2017-Sep-18 03:20N 26°09' W 014°54'3 9.3
2017-Sep-18 02:57N 26°06' W 014°56'4 9.0
2017-Sep-18 02:30N 26°03' W 014°59'5 9.0
2017-Sep-18 02:00N 25°59' W 015°02'510.0
2017-Sep-18 01:30N 25°55' W 015°05'6 9.9
2017-Sep-18 00:52N 25°50' W 015°10'510.1
2017-Sep-18 00:24N 25°46' W 015°13'410.7
2017-Sep-18 00:00N 25°43' W 015°15'611.0
2017-Sep-17 23:27N 25°38' W 015°19'511.2
2017-Sep-17 22:58N 25°33' W 015°23'811.0
2017-Sep-17 22:12N 25°26' W 015°28'311.2
2017-Sep-17 21:56N 25°24' W 015°30'811.3
2017-Sep-17 21:15N 25°18' W 015°35'411.4
2017-Sep-17 20:55N 25°15' W 015°38'19211.2
2017-Sep-17 03:45N 22°24' W 017°13'  

Dump ship's entire track history